Station info - map view · info · telemetry · weather · raw · status · beacons · messages · bulletins · browse · moving · my account
Callsign, ship name or locator: Clear       
It is possible to search using wildcards (*?) after a prefix. Example: OH*
APRS station N175PT - show graphs
Map loading...
Comment: KG6VN COZY MK IV
Mic-E message: En route
Last status: MT8000FA v1.0
Location: 40°09.09' N 122°14.85' W - locator CN80VD06HI - show map - static map
2.0 miles South bearing 198° from Red Bluff, Tehama County, California, United States [?]
8.3 miles Northwest bearing 322° from Gerber, Tehama County, California, United States
31.0 miles South bearing 166° from Redding, Shasta County, California, United States
36.4 miles Northwest bearing 324° from Chico, Butte County, California, United States
Last position: 2017-04-19 13:26:50 EDT (5d 18h53m ago)
2017-04-19 10:26:50 PDT local time at Red Bluff, United States [?]
Altitude: 374 ft
Course: 64°
Last telemetry: 2015-02-14 15:17:32 EST (800d 16h2m ago) – show telemetry
Ch 1: 477, Ch 2: 636, Ch 3: 0, Ch 4: 0, Ch 5: 0
 1     2     3     4     5     6     7     8 
Last path: N175PT>TP0YPY via N6RZR-3,WIDE1*,WIDE2-1,qAR,W6SCR (good)
Positions stored: 17382
Stations near current position of N175PT - show more
callsign distance last heard - EDT      callsign distance last heard - EDT
KRBL295.2 yards 232°2017-04-02 16:12:34 DW65277.4 miles 301°2017-04-24 10:12:29
EW711413.0 miles 322°2017-04-25 08:17:36 N5508V14.5 miles 7°2017-04-09 17:37:28
KI6YNM15.2 miles 5°2017-04-15 18:49:46 K7DON-515.7 miles 170°2017-04-24 17:18:21
KI6NKZ-716.0 miles 164°2017-04-13 02:01:55 N6RZR-219.9 miles 1°2017-04-25 08:15:16
W6SCR-335.0 miles 115°2017-04-25 08:17:32 CW887837.0 miles 121°2017-04-25 08:18:23
Stations which heard N175PT directly on radio –
callsign pkts first heard - EDT last heard longest (tx => rx) longest at - EDT
W6BXN-3 1 2017-04-05 19:01:36 2017-04-05 19:01:36 CM97GA > CM97XM 83.7 miles 63° 2017-04-05 19:01:36
N6RZR-3 58 2017-04-05 14:51:37 2017-04-19 13:26:50 CM98BP > CN80QO 143.0 miles 343° 2017-04-05 19:56:52
K6TJS 3 2017-04-05 16:08:16 2017-04-05 19:06:33 CM97GF > CM97OB 38.9 miles 107° 2017-04-05 19:06:33
K6IXA-3 2 2017-04-05 16:05:19 2017-04-05 16:09:18 CM97GE > DM06NR 148.7 miles 102° 2017-04-05 16:05:19
K6JE-3 3 2017-04-05 16:14:10 2017-04-05 18:58:35 CM96HV > CM96FS 10.8 miles 209° 2017-04-05 16:16:35
W6CX-3 3 2017-04-05 15:12:33 2017-04-05 19:41:41 CM89XH > CM97BV 97.0 miles 175° 2017-04-05 15:12:33
K6LY-3 1 2017-04-05 16:10:17 2017-04-05 16:10:17 CM96GX > CM96AO 37.9 miles 222° 2017-04-05 16:10:17
K6FGA-1 7 2017-04-05 14:56:37 2017-04-05 20:04:51 CM97EV > CM99MF 99.1 miles 22° 2017-04-05 19:41:58
WB6TMS-3 24 2017-04-05 15:30:27 2017-04-05 19:52:53 CM97GD > CM87LX 103.8 miles 306° 2017-04-05 19:04:34
N6ZX-3 10 2017-04-05 15:48:22 2017-04-05 19:50:55 CM98CH > CM87UK 68.9 miles 206° 2017-04-05 19:50:55
K6CDF-5 19 2017-04-05 15:04:35 2017-04-05 20:20:47 CM97GG > CM88PU 128.4 miles 329° 2017-04-05 19:08:28
W6PKT-5 2 2017-04-05 15:30:26 2017-04-05 15:32:26 CM98BM > CM89IH 95.3 miles 306° 2017-04-05 15:32:26
K6CDF-8 15 2017-04-05 14:55:23 2017-04-15 19:55:35 CM98DC > CM89SC 82.1 miles 329° 2017-04-05 19:46:36
W6SCR 19 2017-04-05 15:00:35 2017-04-15 19:53:38 CM98AW > CM99CR 54.0 miles 10° 2017-04-05 15:21:29
K7FED-1 15 2017-04-05 15:43:45 2017-04-05 19:51:35 CM98CH > CM97FP 48.5 miles 165° 2017-04-05 19:51:35
K6MLA-10 37 2017-04-05 14:52:36 2017-04-13 15:38:48 CM98AX > CM99ES 57.8 miles 16° 2017-04-05 20:03:50
WB6RVR 18 2017-04-05 15:13:31 2017-04-05 20:10:55 CM89XH > CM98GP 55.0 miles 147° 2017-04-05 20:10:55
K6SJC-1 2 2017-04-05 19:18:12 2017-04-05 19:19:25 CM97ET > CM97JV 20.8 miles 72° 2017-04-05 19:19:25
W6SCR-3 4 2017-04-13 15:10:26 2017-04-13 15:37:55 CN80TD > CM99EW 40.6 miles 112° 2017-04-13 15:37:55
WA6DNR-3 3 2017-04-05 15:49:24 2017-04-05 15:57:21 CM97FM > CM87RX 62.4 miles 301° 2017-04-05 15:57:21
WB6IVK-1 19 2017-04-05 15:10:33 2017-04-05 20:12:49 CM89XK > CM88SI 75.1 miles 195° 2017-04-05 20:12:49
W6TUW-3 2 2017-04-05 16:06:17 2017-04-05 18:59:48 CM96GW > CM87WC 40.9 miles 286° 2017-04-05 18:59:48
KE6CAC 2 2017-04-05 16:04:29 2017-04-05 20:26:41 CM97DX > CM98GJ 31.2 miles 22° 2017-04-05 20:26:41
N6ACK-11 4 2017-04-05 15:54:21 2017-04-05 19:10:33 CM97GD > CM97AH 30.8 miles 297° 2017-04-05 19:04:33
HILAKE 5 2017-04-13 15:08:39 2017-04-15 19:16:30 CN80TE > CN90HA 52.9 miles 103° 2017-04-13 15:09:24
K6RPT 6 2017-04-05 16:04:17 2017-04-05 19:11:31 CM97GC > CM97BG 26.7 miles 296° 2017-04-05 19:03:33
BKELEY 6 2017-04-05 15:44:24 2017-04-05 19:43:56 CM97ES > CM87VU 32.8 miles 284° 2017-04-05 15:51:22
W6IA 6 2017-04-05 15:59:19 2017-04-05 19:10:32 CM97FK > CM97BG 23.5 miles 243° 2017-04-05 19:10:32
W6SCR-4 22 2017-04-05 15:14:31 2017-04-15 19:53:32 CN80TF > CM99IM 73.6 miles 130° 2017-04-13 15:08:47
AC6ET-5 7 2017-04-05 15:18:21 2017-04-05 15:34:07 CM98CL > CM89KC 81.0 miles 304° 2017-04-05 15:34:07
KK6ZL-10 8 2017-04-05 15:49:21 2017-04-05 19:17:49 CM97FM > CM97BQ 21.2 miles 300° 2017-04-05 19:12:31
KQ6DI-3 13 2017-04-05 15:31:26 2017-04-05 20:00:51 CM98BT > CM98HI 41.0 miles 141° 2017-04-05 20:00:51
KJ6ART 1 2017-04-05 19:02:34 2017-04-05 19:02:34 CM97GB > CM97OL 46.6 miles 49° 2017-04-05 19:02:34
W6SRR-3 17 2017-04-05 15:45:22 2017-04-05 19:44:55 CM96GX > CM97AO 52.3 miles 329° 2017-04-05 19:00:47
K6QXY-7 2 2017-04-05 15:22:29 2017-04-05 19:59:51 CM98AV > CM88QL 45.4 miles 232° 2017-04-05 15:22:29
N6VV-3 6 2017-04-05 15:33:26 2017-04-05 19:52:53 CM97FM > CM87WW 41.0 miles 316° 2017-04-05 15:57:19
W6PZA 6 2017-04-05 15:42:23 2017-04-05 19:43:55 CM97DV > CM87WX 22.5 miles 282° 2017-04-05 15:47:22

Only position packets which were originated by the station are shown here. The range statistics show some extra long hops, because some digipeaters do not correctly add themselves to the digipeater path. Please check the raw packets.
About this site
This page shows real-time information collected from the Automatic Position Reporting System Internet network (APRS-IS). APRS is used by amateur (ham) radio operators to transmit real-time position information, weather data, telemetry and messages over the radio. A vehicle equipped with a GPS receiver, a VHF transmitter or HF transceiver and a small computer device called a tracker transmits it's location, speed and course in a small data packet, which is then received by a nearby iGate receiving site which forwards the packet on the Internet. Systems connected to the Internet can send information on the APRS-IS without a radio transmitter, or collect and display information transmitted anywhere in the world.
FAQ · Blog · Discussion group · Linking to aprs.fi · AIS sites · Service status · Database statistics · Advertising on aprs.fi · Technical details · API · Change log · Planned changes · Credits and thanks · Terms Of Service · iPhone/iPad APRS